createdAt,value
2023-02-11T00:11:57.709Z,90.3
2023-02-11T00:27:40.125Z,90.54
2023-02-11T00:43:22.445Z,90.79
2023-02-11T00:59:04.914Z,90.94
2023-02-11T01:14:47.362Z,89.94
2023-02-11T01:30:30.143Z,90.05
2023-02-11T01:46:12.981Z,89.89
2023-02-11T02:01:55.988Z,90.12
2023-02-11T02:17:39.117Z,90.56
2023-02-11T02:33:21.995Z,90.5
2023-02-11T02:49:04.961Z,90.78
2023-02-11T03:04:47.263Z,90.85
2023-02-11T03:20:29.702Z,90.89
2023-02-11T03:36:12.452Z,90.83
2023-02-11T03:51:55.573Z,91.15
2023-02-11T04:07:38.519Z,91.77
2023-02-11T04:23:21.544Z,92.97
2023-02-11T04:39:03.991Z,93.62
2023-02-11T04:54:46.675Z,94.61
2023-02-11T05:10:29.773Z,96.41
2023-02-11T05:26:12.682Z,96.88
2023-02-11T05:41:54.915Z,98.09
2023-02-11T05:57:37.103Z,99.13
2023-02-11T06:13:20.128Z,100
2023-02-11T06:29:02.646Z,100
2023-02-11T06:44:45.228Z,100
2023-02-11T07:00:27.497Z,100
2023-02-11T07:16:10.030Z,100
2023-02-11T07:31:52.826Z,100
2023-02-11T07:47:35.469Z,100
2023-02-11T08:03:18.420Z,100
2023-02-11T08:19:00.693Z,100
2023-02-11T08:34:43.714Z,100
2023-02-11T08:50:26.692Z,100
2023-02-11T09:06:09.262Z,100
2023-02-11T09:21:52.155Z,100
2023-02-11T09:37:35.176Z,100
2023-02-11T09:53:17.586Z,100
2023-02-11T10:09:00.429Z,100
2023-02-11T10:24:43.220Z,100
2023-02-11T10:40:26.029Z,100
2023-02-11T10:56:08.346Z,100
2023-02-11T11:11:50.759Z,100
2023-02-11T11:27:33.700Z,100
2023-02-11T11:43:16.278Z,100
2023-02-11T11:58:58.724Z,100
2023-02-11T12:14:40.889Z,100
2023-02-11T12:30:23.673Z,100
2023-02-11T12:46:06.450Z,100
2023-02-11T13:01:49.168Z,100
2023-02-11T13:17:31.467Z,100
2023-02-11T13:33:14.434Z,100
2023-02-11T13:48:57.337Z,100
2023-02-11T14:04:39.577Z,100
2023-02-11T14:20:22.272Z,100
2023-02-11T14:36:05.224Z,100
2023-02-11T14:36:52.638Z,100
2023-02-11T14:52:35.469Z,100
2023-02-11T15:08:18.128Z,100
2023-02-11T15:24:00.829Z,100
2023-02-11T15:39:43.252Z,100
2023-02-11T15:55:25.810Z,100
2023-02-11T16:11:08.394Z,100
2023-02-11T16:26:51.035Z,100
2023-02-11T16:42:34.014Z,100
2023-02-11T16:58:16.122Z,100
2023-02-11T17:13:58.356Z,100
2023-02-11T17:29:40.549Z,100
2023-02-11T17:45:23.508Z,100
2023-02-11T18:01:06.274Z,100
2023-02-11T18:16:48.456Z,100
2023-02-11T18:32:31.524Z,100
2023-02-11T18:48:14.638Z,100
2023-02-11T19:03:57.603Z,100
2023-02-11T19:19:40.553Z,100
2023-02-11T19:35:23.391Z,100
2023-02-11T19:51:05.497Z,100
2023-02-11T20:06:48.577Z,100
2023-02-11T20:22:31.058Z,100
2023-02-11T20:38:13.822Z,100
2023-02-11T20:53:56.556Z,100
2023-02-11T21:09:39.101Z,100
2023-02-11T21:25:21.428Z,100
2023-02-11T21:41:03.998Z,100
2023-02-11T21:56:46.479Z,100
2023-02-11T22:12:28.868Z,100
2023-02-11T22:28:11.932Z,100
2023-02-11T22:43:54.717Z,100
2023-02-11T22:59:37.830Z,100
2023-02-11T23:15:20.246Z,100
2023-02-11T23:31:03.095Z,100
2023-02-11T23:46:45.218Z,100
